createdAt,value
2023-04-14T00:00:57.000Z,98.4
2023-04-14T00:02:14.000Z,99
2023-04-14T00:03:30.000Z,98.9
2023-04-14T00:04:46.000Z,98.8
2023-04-14T00:06:02.000Z,99.1
2023-04-14T00:07:19.000Z,99.1
2023-04-14T00:08:35.000Z,98.3
2023-04-14T00:09:51.000Z,98.1
2023-04-14T00:11:07.000Z,98.5
2023-04-14T00:12:23.000Z,98.9
2023-04-14T00:13:40.000Z,98.9
2023-04-14T00:14:56.000Z,98.4
2023-04-14T00:16:12.000Z,98.4
2023-04-14T00:17:27.000Z,98
2023-04-14T00:18:44.000Z,98.3
2023-04-14T00:20:00.000Z,98.3
2023-04-14T00:21:16.000Z,99.2
2023-04-14T00:22:32.000Z,99
2023-04-14T00:23:49.000Z,99
2023-04-14T00:25:05.000Z,98.8
2023-04-14T00:26:21.000Z,99
2023-04-14T00:27:37.000Z,99.4
2023-04-14T00:28:54.000Z,100
2023-04-14T00:31:26.000Z,100
2023-04-14T00:32:42.000Z,100
2023-04-14T00:33:58.000Z,100
2023-04-14T00:35:14.000Z,100
2023-04-14T00:36:30.000Z,100
2023-04-14T00:37:46.000Z,100
2023-04-14T00:39:02.000Z,100
2023-04-14T00:40:19.000Z,100
2023-04-14T00:41:35.000Z,100
2023-04-14T00:42:51.000Z,100
2023-04-14T00:44:07.000Z,100
2023-04-14T00:45:24.000Z,100
2023-04-14T00:46:40.000Z,99.8
2023-04-14T00:47:56.000Z,98.6
2023-04-14T00:49:12.000Z,98.8
2023-04-14T00:50:28.000Z,99.3
2023-04-14T00:51:44.000Z,99.4
2023-04-14T00:53:00.000Z,99.7
2023-04-14T00:54:16.000Z,99.3
2023-04-14T00:55:33.000Z,99
2023-04-14T00:56:49.000Z,99.1
2023-04-14T00:58:05.000Z,99.4
2023-04-14T00:59:21.000Z,99.7
2023-04-14T01:00:37.000Z,99.3
2023-04-14T01:01:54.000Z,99.5
2023-04-14T01:03:10.000Z,100
2023-04-14T01:04:25.000Z,100
2023-04-14T01:05:41.000Z,99.2
2023-04-14T01:06:58.000Z,98.9
2023-04-14T01:08:14.000Z,99.2
2023-04-14T01:09:30.000Z,99.2
2023-04-14T01:10:46.000Z,99.3
2023-04-14T01:12:03.000Z,99.7
2023-04-14T01:13:19.000Z,99.7
2023-04-14T01:14:35.000Z,99.3
2023-04-14T01:15:51.000Z,99.2
2023-04-14T01:17:08.000Z,99.3
2023-04-14T01:18:24.000Z,99.6
2023-04-14T01:19:40.000Z,99.8
2023-04-14T01:20:55.000Z,100
2023-04-14T01:22:11.000Z,100
2023-04-14T01:23:28.206Z,100
2023-04-14T01:24:44.000Z,100
2023-04-14T01:26:00.000Z,100
2023-04-14T01:27:16.000Z,100
2023-04-14T01:28:33.000Z,100
2023-04-14T01:29:49.000Z,100
2023-04-14T01:31:05.000Z,100
2023-04-14T01:32:21.000Z,100
2023-04-14T01:33:38.000Z,99.5
2023-04-14T01:34:54.000Z,99.2
2023-04-14T01:36:10.000Z,99.4
2023-04-14T01:37:25.000Z,98.7
2023-04-14T01:38:42.000Z,98.1
2023-04-14T01:39:58.000Z,97.7
2023-04-14T01:41:14.000Z,97.2
2023-04-14T01:42:30.000Z,97.3
2023-04-14T01:43:46.000Z,97
2023-04-14T01:45:03.000Z,97
2023-04-14T01:46:19.000Z,97
2023-04-14T01:47:35.000Z,97.3
2023-04-14T01:50:08.000Z,97
2023-04-14T01:51:24.000Z,96.5
2023-04-14T01:52:40.000Z,96.2
2023-04-14T01:55:12.000Z,95.8
2023-04-14T01:56:28.000Z,95.8
2023-04-14T01:57:44.000Z,96
2023-04-14T01:59:00.000Z,96.4
2023-04-14T02:00:17.000Z,96.4
2023-04-14T02:01:33.000Z,96.8
2023-04-14T02:02:49.000Z,97.1
2023-04-14T02:04:05.000Z,96.9
2023-04-14T02:05:21.000Z,96.6
2023-04-14T02:06:38.000Z,96.9
2023-04-14T02:07:54.000Z,97
2023-04-14T02:09:10.000Z,97
2023-04-14T02:10:25.000Z,97
2023-04-14T02:11:42.000Z,96.9
2023-04-14T02:12:58.000Z,97.1
2023-04-14T02:14:14.000Z,97.5
2023-04-14T02:15:30.000Z,97.7
2023-04-14T02:16:47.000Z,97.9
2023-04-14T02:18:03.000Z,98.4
2023-04-14T02:19:19.000Z,98.8
2023-04-14T02:20:35.000Z,99
2023-04-14T02:21:52.000Z,98.7
2023-04-14T02:23:08.000Z,98.7
2023-04-14T02:24:24.000Z,98.7
2023-04-14T02:25:40.000Z,98.8
2023-04-14T02:26:55.000Z,99.2
2023-04-14T02:28:12.000Z,99.3
2023-04-14T02:29:28.000Z,99.3
2023-04-14T02:30:44.000Z,99.3
2023-04-14T02:32:00.000Z,99.1
2023-04-14T02:33:17.000Z,98.6
2023-04-14T02:34:33.000Z,98.2
2023-04-14T02:35:49.000Z,97.4
2023-04-14T02:37:05.000Z,96.4
2023-04-14T02:38:22.000Z,95.4
2023-04-14T02:39:38.000Z,95.4
2023-04-14T02:40:54.000Z,95.5
2023-04-14T02:42:10.000Z,95.8
2023-04-14T02:43:26.000Z,95.8
2023-04-14T02:44:42.000Z,95.7
2023-04-14T02:45:58.000Z,95.6
2023-04-14T02:47:14.000Z,95.3
2023-04-14T02:48:30.000Z,95
2023-04-14T02:49:47.000Z,95.2
2023-04-14T02:51:03.000Z,95.3
2023-04-14T02:52:19.000Z,95.3
2023-04-14T02:53:35.000Z,95.2
2023-04-14T02:54:52.000Z,95.3
2023-04-14T02:56:08.000Z,95.2
2023-04-14T02:57:24.000Z,94.7
2023-04-14T02:58:40.000Z,95.2
2023-04-14T02:59:57.000Z,95.9
2023-04-14T03:01:12.000Z,95.8
2023-04-14T03:02:28.000Z,95.9
2023-04-14T03:03:44.000Z,95.2
2023-04-14T03:06:17.000Z,93.9
2023-04-14T03:07:33.000Z,94
2023-04-14T03:08:49.000Z,94.4
2023-04-14T03:10:05.000Z,94.7
2023-04-14T03:11:22.000Z,94.5
2023-04-14T03:12:38.000Z,94.2
2023-04-14T03:13:54.000Z,94.3
2023-04-14T03:15:10.000Z,93.8
2023-04-14T03:16:27.000Z,94
2023-04-14T03:17:42.000Z,93.9
2023-04-14T03:18:58.000Z,94.4
2023-04-14T03:20:14.000Z,94.3
2023-04-14T03:21:31.000Z,94.1
2023-04-14T03:22:47.000Z,93.5
2023-04-14T03:24:03.000Z,93.3
2023-04-14T03:25:19.000Z,93.4
2023-04-14T03:26:36.000Z,93.5
2023-04-14T03:27:52.000Z,93.5
2023-04-14T03:29:08.000Z,93.4
2023-04-14T03:30:24.000Z,93.5
2023-04-14T03:31:40.000Z,93.4
2023-04-14T03:32:57.000Z,93.8
2023-04-14T03:34:12.000Z,93.6
2023-04-14T03:35:28.000Z,93.8
2023-04-14T03:36:44.000Z,94.2
2023-04-14T03:38:01.000Z,94.5
2023-04-14T03:39:17.000Z,94.7
2023-04-14T03:40:33.000Z,94
2023-04-14T03:41:49.000Z,94.5
2023-04-14T03:43:06.000Z,94
2023-04-14T03:44:22.000Z,94
2023-04-14T03:45:38.000Z,94.1
2023-04-14T03:46:54.000Z,93.6
2023-04-14T03:48:11.000Z,93.7
2023-04-14T03:49:27.000Z,94
2023-04-14T03:50:42.000Z,94.2
2023-04-14T03:51:58.000Z,94.3
2023-04-14T03:53:14.990Z,94.3
2023-04-14T03:54:31.000Z,94.5
2023-04-14T03:55:47.000Z,95.3
2023-04-14T03:57:03.000Z,95
2023-04-14T03:58:19.000Z,95.2
2023-04-14T03:59:36.000Z,95.6
2023-04-14T04:00:52.000Z,95.6
2023-04-14T04:02:08.000Z,95.6
2023-04-14T04:03:24.000Z,95.8
2023-04-14T04:04:41.000Z,96.1
2023-04-14T04:05:57.000Z,96.1
2023-04-14T04:07:12.000Z,96.3
2023-04-14T04:08:28.000Z,96.4
2023-04-14T04:09:45.000Z,96.6
2023-04-14T04:11:01.000Z,97.1
2023-04-14T04:12:17.000Z,97
2023-04-14T04:13:33.000Z,97.1
2023-04-14T04:14:49.000Z,97.1
2023-04-14T04:16:06.000Z,97
2023-04-14T04:17:22.000Z,97.5
2023-04-14T04:18:38.000Z,97.8
2023-04-14T04:19:54.000Z,97.8
2023-04-14T04:21:11.000Z,97.8
2023-04-14T04:22:27.000Z,98
2023-04-14T04:23:42.000Z,98.2
2023-04-14T04:24:58.000Z,98.2
2023-04-14T04:26:15.000Z,98.4
2023-04-14T04:27:31.000Z,98.8
2023-04-14T04:28:47.000Z,99.1
2023-04-14T04:30:03.000Z,99.4
2023-04-14T04:31:20.000Z,99.2
2023-04-14T04:32:36.000Z,99.3
2023-04-14T04:33:52.000Z,99.7
2023-04-14T04:35:08.000Z,100
2023-04-14T04:36:24.000Z,100
2023-04-14T04:37:41.000Z,100
2023-04-14T04:38:57.000Z,100
2023-04-14T04:40:12.000Z,100
2023-04-14T04:41:28.000Z,100
2023-04-14T04:42:45.000Z,100
2023-04-14T04:44:01.000Z,100
2023-04-14T04:45:17.000Z,99.8
2023-04-14T04:46:33.000Z,100
2023-04-14T04:47:50.000Z,100
2023-04-14T04:49:06.000Z,100
2023-04-14T04:50:22.000Z,100
2023-04-14T04:51:38.000Z,100
2023-04-14T04:52:55.000Z,100
2023-04-14T04:54:11.000Z,100
2023-04-14T04:55:27.000Z,99.8
2023-04-14T04:57:59.000Z,99
2023-04-14T04:59:15.000Z,98.7
2023-04-14T05:00:31.000Z,98.5
2023-04-14T05:01:47.000Z,98.3
2023-04-14T05:03:03.000Z,98.2
2023-04-14T05:04:20.000Z,97.6
2023-04-14T05:05:36.000Z,97
2023-04-14T05:06:52.000Z,96.7
2023-04-14T05:08:08.000Z,96.5
2023-04-14T05:09:25.000Z,96.4
2023-04-14T05:10:41.000Z,96.2
2023-04-14T05:11:57.000Z,95.9
2023-04-14T05:13:12.000Z,96
2023-04-14T05:14:29.000Z,96
2023-04-14T05:15:45.000Z,95.9
2023-04-14T05:17:01.000Z,96
2023-04-14T05:18:17.000Z,96.1
2023-04-14T05:19:33.000Z,96.2
2023-04-14T05:20:49.000Z,95.9
2023-04-14T05:22:05.000Z,96.2
2023-04-14T05:23:21.000Z,95.9
2023-04-14T05:24:37.000Z,95.9
2023-04-14T05:25:54.000Z,96.5
2023-04-14T05:27:10.000Z,95.7
2023-04-14T05:28:26.000Z,95
2023-04-14T05:29:42.000Z,94.6
2023-04-14T05:30:59.000Z,94.5
2023-04-14T05:32:15.000Z,94.5
2023-04-14T05:33:31.000Z,94.3
2023-04-14T05:34:47.000Z,94.4
2023-04-14T05:36:03.000Z,94.4
2023-04-14T05:37:19.000Z,95.1
2023-04-14T05:38:35.000Z,95.4
2023-04-14T05:39:51.000Z,95.7
2023-04-14T05:41:08.000Z,95.1
2023-04-14T05:42:24.000Z,94.8
2023-04-14T05:43:40.000Z,94.3
2023-04-14T05:44:56.000Z,94.1
2023-04-14T05:46:12.000Z,94.3
2023-04-14T05:47:29.000Z,94.7
2023-04-14T05:48:45.000Z,94.6
2023-04-14T05:50:01.000Z,94.4
2023-04-14T05:51:17.000Z,94
2023-04-14T05:52:33.000Z,94.2
2023-04-14T05:53:49.000Z,93.7
2023-04-14T05:55:05.000Z,93.1
2023-04-14T05:56:21.000Z,92.9
2023-04-14T05:57:38.000Z,92.2
2023-04-14T05:58:54.000Z,92.2
2023-04-14T06:00:10.000Z,91.8
2023-04-14T06:01:26.000Z,91.7
2023-04-14T06:03:58.000Z,90.5
2023-04-14T06:05:13.000Z,90.5
2023-04-14T06:06:29.000Z,89.9
2023-04-14T06:07:45.000Z,90.1
2023-04-14T06:09:01.000Z,90.3
2023-04-14T06:10:17.000Z,90.1
2023-04-14T06:11:32.000Z,89.3
2023-04-14T06:12:48.000Z,89.4
2023-04-14T06:14:04.000Z,88.9
2023-04-14T06:15:20.000Z,89.2
2023-04-14T06:16:36.000Z,88.4
2023-04-14T06:17:52.000Z,88.4
2023-04-14T06:19:09.000Z,88.4
2023-04-14T06:20:25.000Z,88.1
2023-04-14T06:21:41.000Z,87.6
2023-04-14T06:22:57.000Z,87.2
2023-04-14T06:24:14.000Z,87.5
2023-04-14T06:25:30.000Z,87.1
2023-04-14T06:26:46.000Z,87
2023-04-14T06:28:02.000Z,87.1
2023-04-14T06:29:18.000Z,86.7
2023-04-14T06:30:34.000Z,86.6
2023-04-14T06:31:50.000Z,86.3
2023-04-14T06:33:06.000Z,86
2023-04-14T06:34:23.000Z,86.4
2023-04-14T06:35:39.000Z,85.6
2023-04-14T06:36:55.000Z,85
2023-04-14T06:38:11.000Z,84.9
2023-04-14T06:39:27.000Z,84.3
2023-04-14T06:40:44.000Z,84.3
2023-04-14T06:42:00.000Z,83.3
2023-04-14T06:43:16.000Z,83.5
2023-04-14T06:44:32.000Z,84.5
2023-04-14T06:45:48.000Z,84.2
2023-04-14T06:47:04.000Z,83.5
2023-04-14T06:48:20.000Z,83
2023-04-14T06:49:36.000Z,83.5
2023-04-14T06:50:53.000Z,83.7
2023-04-14T06:52:09.000Z,82.7
2023-04-14T06:53:25.000Z,82.8
2023-04-14T06:54:41.000Z,82.2
2023-04-14T06:55:58.000Z,82
2023-04-14T06:57:14.000Z,82.2
2023-04-14T06:58:30.000Z,82.5
2023-04-14T06:59:46.000Z,82.3
2023-04-14T07:01:02.000Z,83
2023-04-14T07:02:18.000Z,82.3
2023-04-14T07:03:34.000Z,81.6
2023-04-14T07:04:50.000Z,82.4
2023-04-14T07:06:06.000Z,81.2
2023-04-14T07:07:23.000Z,80.7
2023-04-14T07:08:39.000Z,80.4
2023-04-14T07:09:55.000Z,80.9
2023-04-14T07:11:11.000Z,80.5
2023-04-14T07:12:28.000Z,81.8
2023-04-14T07:13:44.000Z,80.9
2023-04-14T07:15:00.000Z,79
2023-04-14T07:16:16.000Z,78.7
2023-04-14T07:17:33.000Z,79.8
2023-04-14T07:18:48.000Z,79
2023-04-14T07:20:04.000Z,80.2
2023-04-14T07:21:20.000Z,78.8
2023-04-14T07:22:36.000Z,80.2
2023-04-14T07:23:53.000Z,78.2
2023-04-14T07:25:09.000Z,77.8
2023-04-14T07:26:25.000Z,76.9
2023-04-14T07:27:41.000Z,77.1
2023-04-14T07:28:58.000Z,77.2
2023-04-14T07:30:14.000Z,76.8
2023-04-14T07:31:29.000Z,77
2023-04-14T07:32:44.000Z,77
2023-04-14T07:34:01.000Z,77.7
2023-04-14T07:35:16.000Z,78
2023-04-14T07:36:31.000Z,78.1
2023-04-14T07:37:47.000Z,77.8
2023-04-14T07:39:04.000Z,76.6
2023-04-14T07:40:20.000Z,77.2
2023-04-14T07:41:36.000Z,78.1
2023-04-14T07:42:52.000Z,78.8
2023-04-14T07:44:09.000Z,76.7
2023-04-14T07:45:25.000Z,77.1
2023-04-14T07:46:41.000Z,78.3
2023-04-14T07:47:57.000Z,78
2023-04-14T07:49:13.000Z,75.5
2023-04-14T07:50:30.000Z,75.3
2023-04-14T07:53:02.000Z,75.5
2023-04-14T07:54:17.000Z,76.1
2023-04-14T07:55:34.000Z,75.9
2023-04-14T07:56:50.000Z,74
2023-04-14T07:58:06.000Z,74.3
2023-04-14T07:59:22.000Z,74.8
2023-04-14T08:00:39.000Z,75.6
2023-04-14T08:01:55.000Z,76.4
2023-04-14T08:03:10.000Z,74.3
2023-04-14T08:04:26.000Z,73.3
2023-04-14T08:05:42.000Z,72.4
2023-04-14T08:06:57.000Z,72.6
2023-04-14T08:08:12.000Z,72.4
2023-04-14T08:09:28.000Z,70.2
2023-04-14T08:10:45.000Z,69.4
2023-04-14T08:12:01.000Z,70.2
2023-04-14T08:13:17.000Z,69.2
2023-04-14T08:14:33.000Z,70
2023-04-14T08:15:50.000Z,69.4
2023-04-14T08:17:06.000Z,70.4
2023-04-14T08:18:22.000Z,70.8
2023-04-14T08:19:38.000Z,70.2
2023-04-14T08:20:54.000Z,69.4
2023-04-14T08:22:11.000Z,69.7
2023-04-14T08:23:27.000Z,68.9
2023-04-14T08:24:42.000Z,68.7
2023-04-14T08:25:58.000Z,67.9
2023-04-14T08:28:31.000Z,69.5
2023-04-14T08:29:47.000Z,68.8
2023-04-14T08:31:03.000Z,67.5
2023-04-14T08:32:20.000Z,67.8
2023-04-14T08:33:36.000Z,67.7
2023-04-14T08:34:52.000Z,66.8
2023-04-14T08:36:08.000Z,69.7
2023-04-14T08:37:24.000Z,70
2023-04-14T08:38:41.000Z,67.3
2023-04-14T08:41:13.000Z,66.4
2023-04-14T08:42:28.000Z,67.1
2023-04-14T08:43:45.000Z,68.7
2023-04-14T08:45:01.000Z,70.2
2023-04-14T08:46:17.000Z,67.3
2023-04-14T08:47:33.000Z,67.9
2023-04-14T08:48:50.000Z,66.5
2023-04-14T08:51:22.000Z,65.4
2023-04-14T08:52:37.000Z,66.1
2023-04-14T08:53:53.000Z,65.8
2023-04-14T08:55:09.000Z,64.5
2023-04-14T08:56:25.000Z,64.5
2023-04-14T08:57:41.000Z,67.1
2023-04-14T08:58:58.000Z,66.8
2023-04-14T09:00:14.000Z,67
2023-04-14T09:01:30.000Z,64.3
2023-04-14T09:02:46.000Z,62.7
2023-04-14T09:04:02.000Z,63.6
2023-04-14T09:05:19.000Z,64.3
2023-04-14T09:06:34.000Z,65.3
2023-04-14T09:07:49.000Z,64.7
2023-04-14T09:09:05.000Z,67.9
2023-04-14T09:10:22.000Z,66.8
2023-04-14T09:11:38.000Z,61.8
2023-04-14T09:12:54.000Z,63.1
2023-04-14T09:14:10.000Z,66.3
2023-04-14T09:15:27.000Z,64.7
2023-04-14T09:16:43.000Z,63.6
2023-04-14T09:17:59.000Z,63.2
2023-04-14T09:19:15.000Z,65.2
2023-04-14T09:20:32.000Z,65.2
2023-04-14T09:21:48.000Z,64.4
2023-04-14T09:23:04.000Z,62.8
2023-04-14T09:24:19.000Z,62.6
2023-04-14T09:25:36.000Z,61.7
2023-04-14T09:26:52.000Z,62.9
2023-04-14T09:28:08.000Z,62
2023-04-14T09:29:24.000Z,63.9
2023-04-14T09:30:40.000Z,62
2023-04-14T09:31:57.000Z,61.4
2023-04-14T09:33:12.000Z,62.5
2023-04-14T09:34:27.000Z,68.1
2023-04-14T09:35:42.000Z,63.4
2023-04-14T09:36:58.000Z,61.7
2023-04-14T09:38:14.000Z,62.6
2023-04-14T09:39:30.000Z,65.3
2023-04-14T09:40:46.000Z,63.1
2023-04-14T09:42:03.000Z,62.7
2023-04-14T09:43:19.000Z,64
2023-04-14T09:44:35.000Z,62.8
2023-04-14T09:45:51.000Z,61.3
2023-04-14T09:47:08.000Z,62.1
2023-04-14T09:48:24.000Z,61.7
2023-04-14T09:49:40.000Z,61.4
2023-04-14T09:50:56.000Z,60.8
2023-04-14T09:52:13.000Z,61.4
2023-04-14T09:53:28.000Z,62.2
2023-04-14T09:54:44.000Z,61.8
2023-04-14T09:56:00.000Z,63.1
2023-04-14T09:57:16.000Z,63.7
2023-04-14T09:58:33.000Z,60.6
2023-04-14T09:59:49.000Z,58.3
2023-04-14T10:01:05.000Z,58.1
2023-04-14T10:02:21.000Z,56.9
2023-04-14T10:03:38.000Z,57.3
2023-04-14T10:04:54.000Z,59.5
2023-04-14T10:06:10.000Z,58.1
2023-04-14T10:07:26.000Z,58.9
2023-04-14T10:08:43.000Z,60.2
2023-04-14T10:09:58.000Z,55.9
2023-04-14T10:11:14.000Z,55.9
2023-04-14T10:12:30.000Z,56.6
2023-04-14T10:13:47.000Z,57.5
2023-04-14T10:15:03.000Z,54.7
2023-04-14T10:16:19.000Z,54.1
2023-04-14T10:17:35.000Z,56.5
2023-04-14T10:18:51.000Z,62.1
2023-04-14T10:20:08.000Z,59.9
2023-04-14T10:21:24.000Z,56.2
2023-04-14T10:22:40.000Z,56.4
2023-04-14T10:23:56.000Z,57.3
2023-04-14T10:25:13.000Z,56
2023-04-14T10:26:28.000Z,57.3
2023-04-14T10:27:43.000Z,55.1
2023-04-14T10:28:58.000Z,53.4
2023-04-14T10:30:14.000Z,54.2
2023-04-14T10:31:30.000Z,58.9
2023-04-14T10:32:46.000Z,57.6
2023-04-14T10:34:02.000Z,58.5
2023-04-14T10:35:19.000Z,59.5
2023-04-14T10:36:35.000Z,55.6
2023-04-14T10:37:51.000Z,57.8
2023-04-14T10:40:24.000Z,53.2
2023-04-14T10:41:40.000Z,55.8
2023-04-14T10:42:56.000Z,54.1
2023-04-14T10:44:12.000Z,56.2
2023-04-14T10:45:28.000Z,55.1
2023-04-14T10:46:44.000Z,54.8
2023-04-14T10:48:00.000Z,53.7
2023-04-14T10:49:16.000Z,52.2
2023-04-14T10:50:32.000Z,53.1
2023-04-14T10:51:49.000Z,51.5
2023-04-14T10:53:05.000Z,51.8
2023-04-14T10:54:21.000Z,51.2
2023-04-14T10:55:37.000Z,52.6
2023-04-14T10:56:54.000Z,52.7
2023-04-14T10:58:10.000Z,55.5
2023-04-14T11:00:42.000Z,58.7
2023-04-14T11:01:59.000Z,54.7
2023-04-14T11:03:14.000Z,55.2
2023-04-14T11:04:30.000Z,53.9
2023-04-14T11:05:46.000Z,49.4
2023-04-14T11:07:02.000Z,49.8
2023-04-14T11:08:18.000Z,52.8
2023-04-14T11:09:33.000Z,51.1
2023-04-14T11:10:49.000Z,51.2
2023-04-14T11:12:05.000Z,53.6
2023-04-14T11:13:22.000Z,55
2023-04-14T11:14:38.000Z,52.6
2023-04-14T11:15:53.000Z,54.5
2023-04-14T11:17:08.000Z,54.9
2023-04-14T11:18:25.000Z,56.2
2023-04-14T11:19:41.000Z,55.2
2023-04-14T11:20:57.000Z,56.1
2023-04-14T11:22:13.000Z,56.3
2023-04-14T11:23:30.000Z,56.2
2023-04-14T11:24:46.000Z,55.1
2023-04-14T11:26:02.000Z,53.5
2023-04-14T11:27:18.000Z,52.9
2023-04-14T11:28:35.000Z,53.8
2023-04-14T11:29:51.000Z,53.3
2023-04-14T11:31:07.000Z,53.6
2023-04-14T11:32:23.000Z,54.9
2023-04-14T11:33:39.000Z,55.6
2023-04-14T11:34:55.000Z,54.1
2023-04-14T11:36:11.000Z,53.6
2023-04-14T11:37:27.000Z,54.9
2023-04-14T11:38:43.000Z,56.8
2023-04-14T11:40:00.000Z,54.8
2023-04-14T11:41:16.000Z,55.1
2023-04-14T11:42:32.000Z,53.4
2023-04-14T11:43:48.000Z,53.5
2023-04-14T11:45:04.000Z,55.5
2023-04-14T11:46:19.000Z,53.9
2023-04-14T11:47:35.000Z,53.9
2023-04-14T11:48:50.000Z,55.7
2023-04-14T11:50:06.000Z,53.2
2023-04-14T11:51:22.000Z,53.4
2023-04-14T11:52:38.000Z,54
2023-04-14T11:53:54.000Z,53.8
2023-04-14T11:55:11.000Z,52.9
2023-04-14T11:56:27.000Z,51.5
2023-04-14T11:57:43.000Z,52.7
2023-04-14T11:58:59.792Z,55.5
2023-04-14T12:00:16.000Z,55.5
2023-04-14T12:02:48.000Z,53.6
2023-04-14T12:04:04.000Z,54.9
2023-04-14T12:05:20.000Z,56.1
2023-04-14T12:06:36.000Z,53
2023-04-14T12:07:52.000Z,54
2023-04-14T12:09:08.000Z,54
2023-04-14T12:10:24.000Z,53.6
2023-04-14T12:11:41.000Z,51.9
2023-04-14T12:12:57.000Z,52.4
2023-04-14T12:14:13.000Z,54
2023-04-14T12:15:29.000Z,55.3
2023-04-14T12:16:45.000Z,54.4
2023-04-14T12:18:00.000Z,54.6
2023-04-14T12:19:16.000Z,56
2023-04-14T12:20:31.000Z,55.3
2023-04-14T12:21:47.000Z,51.4
2023-04-14T12:23:03.000Z,49.1
2023-04-14T12:24:19.000Z,50.6
2023-04-14T12:25:35.000Z,49.4
2023-04-14T12:26:52.000Z,48.9
2023-04-14T12:29:24.000Z,50.2
2023-04-14T12:30:40.000Z,50.1
2023-04-14T12:31:56.000Z,52
2023-04-14T12:33:13.000Z,48.3
2023-04-14T12:34:29.000Z,47.5
2023-04-14T12:35:45.000Z,46.3
2023-04-14T12:37:01.000Z,46.6
2023-04-14T12:38:17.000Z,50.2
2023-04-14T12:39:33.000Z,47.4
2023-04-14T12:40:49.000Z,47.5
2023-04-14T12:42:05.000Z,48.8
2023-04-14T12:43:22.000Z,47.6
2023-04-14T12:44:38.000Z,47.1
2023-04-14T12:45:54.000Z,47.9
2023-04-14T12:47:10.000Z,47.2
2023-04-14T12:48:26.000Z,47.5
2023-04-14T12:49:41.000Z,47.7
2023-04-14T12:50:57.000Z,51.2
2023-04-14T12:52:13.000Z,45.8
2023-04-14T12:53:30.000Z,45.2
2023-04-14T12:54:45.000Z,45
2023-04-14T12:56:00.000Z,47.3
2023-04-14T12:57:16.000Z,48.5
2023-04-14T12:58:33.000Z,46.6
2023-04-14T12:59:49.000Z,49.4
2023-04-14T13:01:05.000Z,52
2023-04-14T13:02:21.000Z,49.5
2023-04-14T13:03:37.000Z,48.5
2023-04-14T13:04:54.000Z,50
2023-04-14T13:06:10.000Z,51.8
2023-04-14T13:07:26.000Z,50.4
2023-04-14T13:08:42.000Z,47.8
2023-04-14T13:09:59.000Z,48.4
2023-04-14T13:11:15.000Z,49.2
2023-04-14T13:12:30.000Z,50.6
2023-04-14T13:13:46.000Z,47.7
2023-04-14T13:15:03.000Z,47.5
2023-04-14T13:16:19.000Z,48.3
2023-04-14T13:17:35.000Z,49.8
2023-04-14T13:18:51.000Z,51.8
2023-04-14T13:20:08.000Z,48.1
2023-04-14T13:21:24.000Z,48
2023-04-14T13:22:40.000Z,48.8
2023-04-14T13:23:56.000Z,47
2023-04-14T13:25:12.000Z,45.8
2023-04-14T13:26:29.000Z,44.2
2023-04-14T13:27:45.000Z,43.7
2023-04-14T13:29:00.000Z,44.1
2023-04-14T13:30:16.000Z,43.9
2023-04-14T13:31:33.000Z,44.2
2023-04-14T13:32:49.000Z,44.4
2023-04-14T13:34:05.000Z,48.7
2023-04-14T13:35:21.000Z,45.8
2023-04-14T13:36:38.000Z,48.3
2023-04-14T13:37:54.000Z,47.9
2023-04-14T13:39:10.000Z,47.5
2023-04-14T13:40:26.000Z,45.8
2023-04-14T13:41:42.000Z,45.1
2023-04-14T13:42:59.000Z,45.5
2023-04-14T13:44:15.000Z,44.2
2023-04-14T13:45:30.000Z,43.3
2023-04-14T13:46:46.000Z,43.2
2023-04-14T13:48:03.000Z,41.6
2023-04-14T13:49:18.000Z,40
2023-04-14T13:50:33.000Z,39.5
2023-04-14T13:51:48.000Z,38.1
2023-04-14T13:53:04.000Z,39.9
2023-04-14T13:54:20.000Z,39.3
2023-04-14T13:55:36.000Z,40.1
2023-04-14T13:56:52.000Z,37.4
2023-04-14T13:58:09.000Z,39.7
2023-04-14T14:00:41.000Z,37.7
2023-04-14T14:01:57.000Z,42.6
2023-04-14T14:03:14.000Z,43
2023-04-14T14:04:30.000Z,41.6
2023-04-14T14:05:46.000Z,39.5
2023-04-14T14:07:02.000Z,40.3
2023-04-14T14:08:19.000Z,39.9
2023-04-14T14:09:34.000Z,41.5
2023-04-14T14:10:50.000Z,42.4
2023-04-14T14:12:06.000Z,39.8
2023-04-14T14:13:22.000Z,41.8
2023-04-14T14:14:39.000Z,41.8
2023-04-14T14:15:55.000Z,43.6
2023-04-14T14:17:11.000Z,46.2
2023-04-14T14:18:27.000Z,46.2
2023-04-14T14:19:43.000Z,41.2
2023-04-14T14:20:58.000Z,41
2023-04-14T14:22:14.000Z,43.3
2023-04-14T14:23:30.000Z,40.1
2023-04-14T14:24:47.000Z,39.5
2023-04-14T14:26:03.000Z,39.9
2023-04-14T14:27:18.000Z,41.3
2023-04-14T14:28:33.000Z,37.4
2023-04-14T14:29:50.000Z,36.8
2023-04-14T14:31:06.000Z,37
2023-04-14T14:32:22.000Z,34.8
2023-04-14T14:33:38.000Z,35.1
2023-04-14T14:34:55.000Z,34.5
2023-04-14T14:36:11.000Z,35.7
2023-04-14T14:37:27.000Z,39.8
2023-04-14T14:38:43.000Z,40.2
2023-04-14T14:39:59.000Z,40
2023-04-14T14:41:16.000Z,43
2023-04-14T14:42:32.000Z,43.1
2023-04-14T14:43:48.000Z,43.2
2023-04-14T14:45:03.000Z,42.6
2023-04-14T14:46:20.000Z,40.3
2023-04-14T14:47:36.000Z,40.3
2023-04-14T14:48:52.000Z,40
2023-04-14T14:50:08.000Z,39.1
2023-04-14T14:51:25.000Z,37
2023-04-14T14:52:41.000Z,36.8
2023-04-14T14:53:57.000Z,37.4
2023-04-14T14:55:13.000Z,36.6
2023-04-14T14:56:30.000Z,33.6
2023-04-14T14:57:46.000Z,34.4
2023-04-14T14:59:02.000Z,33.9
2023-04-14T15:00:18.000Z,33.5
2023-04-14T15:01:33.000Z,33.5
2023-04-14T15:02:50.000Z,34.1
2023-04-14T15:04:06.000Z,34.1
2023-04-14T15:05:22.000Z,34.9
2023-04-14T15:06:38.000Z,35.7
2023-04-14T15:09:11.000Z,34.8
2023-04-14T15:10:27.000Z,34.6
2023-04-14T15:11:43.000Z,35.3
2023-04-14T15:13:00.000Z,37.7
2023-04-14T15:14:16.000Z,40.5
2023-04-14T15:15:32.000Z,44.3
2023-04-14T15:16:48.000Z,41.5
2023-04-14T15:18:04.000Z,43.4
2023-04-14T15:19:20.000Z,44.5
2023-04-14T15:20:36.000Z,45.2
2023-04-14T15:21:52.000Z,44.1
2023-04-14T15:23:08.000Z,43.7
2023-04-14T15:24:25.000Z,43.6
2023-04-14T15:25:41.000Z,43
2023-04-14T15:26:57.000Z,44.8
2023-04-14T15:28:13.000Z,42.8
2023-04-14T15:29:30.000Z,43.2
2023-04-14T15:30:46.000Z,42.4
2023-04-14T15:32:02.000Z,45.5
2023-04-14T15:33:18.000Z,43.5
2023-04-14T15:34:34.000Z,44.3
2023-04-14T15:35:50.000Z,44.9
2023-04-14T15:37:06.000Z,44
2023-04-14T15:38:22.000Z,44.4
2023-04-14T15:39:39.000Z,44.8
2023-04-14T15:40:55.000Z,45.6
2023-04-14T15:42:11.000Z,45.6
2023-04-14T15:43:27.000Z,46.5
2023-04-14T15:44:43.000Z,45.9
2023-04-14T15:46:00.000Z,45.9
2023-04-14T15:47:16.000Z,46.3
2023-04-14T15:48:32.000Z,45.2
2023-04-14T15:49:48.000Z,45.2
2023-04-14T15:51:04.000Z,45.4
2023-04-14T15:52:20.000Z,46.3
2023-04-14T15:53:36.000Z,42.2
2023-04-14T15:54:52.000Z,42.4
2023-04-14T15:56:09.000Z,42.7
2023-04-14T15:57:25.000Z,42.6
2023-04-14T15:58:41.000Z,41.9
2023-04-14T15:59:57.000Z,40.1
2023-04-14T16:01:14.000Z,39.3
2023-04-14T16:02:30.000Z,39.5
2023-04-14T16:03:46.000Z,39
2023-04-14T16:05:02.000Z,39.2
2023-04-14T16:06:18.000Z,38.8
2023-04-14T16:07:34.000Z,38.8
2023-04-14T16:08:50.000Z,38.8
2023-04-14T16:10:06.000Z,38.7
2023-04-14T16:11:22.000Z,38.8
2023-04-14T16:12:39.000Z,37.5
2023-04-14T16:13:55.000Z,37.2
2023-04-14T16:15:11.000Z,37.7
2023-04-14T16:16:27.000Z,37.2
2023-04-14T16:17:44.000Z,37.7
2023-04-14T16:19:00.000Z,37.6
2023-04-14T16:20:16.000Z,38.3
2023-04-14T16:21:32.000Z,37.9
2023-04-14T16:22:49.000Z,37.6
2023-04-14T16:24:04.000Z,37.1
2023-04-14T16:25:20.000Z,36.7
2023-04-14T16:26:36.000Z,36.8
2023-04-14T16:27:52.000Z,37.1
2023-04-14T16:29:09.000Z,38.1
2023-04-14T16:30:25.000Z,38.7
2023-04-14T16:31:41.000Z,39.1
2023-04-14T16:32:57.000Z,38.9
2023-04-14T16:34:14.000Z,38.9
2023-04-14T16:35:30.000Z,40.6
2023-04-14T16:36:46.000Z,42.5
2023-04-14T16:38:02.000Z,41.1
2023-04-14T16:39:19.000Z,41.5
2023-04-14T16:40:34.000Z,41.5
2023-04-14T16:41:50.000Z,39.9
2023-04-14T16:43:06.000Z,38.5
2023-04-14T16:44:23.000Z,40.3
2023-04-14T16:45:39.000Z,39.5
2023-04-14T16:46:55.000Z,39.6
2023-04-14T16:48:11.000Z,40.3
2023-04-14T16:49:27.000Z,41.5
2023-04-14T16:50:44.000Z,41.9
2023-04-14T16:52:00.000Z,41.8
2023-04-14T16:53:16.000Z,41.3
2023-04-14T16:54:32.000Z,44
2023-04-14T16:55:49.000Z,43.2
2023-04-14T16:57:05.000Z,41.3
2023-04-14T16:58:20.000Z,41
2023-04-14T16:59:36.000Z,43.8
2023-04-14T17:00:53.000Z,43.7
2023-04-14T17:02:09.000Z,42.5
2023-04-14T17:03:25.000Z,44.1
2023-04-14T17:04:41.000Z,42.9
2023-04-14T17:05:57.000Z,45.4
2023-04-14T17:07:14.000Z,46.7
2023-04-14T17:08:30.000Z,43.8
2023-04-14T17:09:46.000Z,46
2023-04-14T17:11:02.000Z,44.2
2023-04-14T17:12:19.000Z,43.8
2023-04-14T17:13:35.000Z,44
2023-04-14T17:14:50.000Z,45.1
2023-04-14T17:16:06.000Z,44.3
2023-04-14T17:17:23.000Z,44.7
2023-04-14T17:18:39.000Z,44.5
2023-04-14T17:19:55.000Z,45.2
2023-04-14T17:21:11.000Z,45.7
2023-04-14T17:22:28.000Z,45.9